createdAt,value
2023-02-05T00:01:32.992Z,1.55
2023-02-05T00:04:00.145Z,1.00
2023-02-05T00:06:27.240Z,1.75
2023-02-05T00:08:54.092Z,1.08
2023-02-05T00:11:21.019Z,0.80
2023-02-05T00:13:47.906Z,0.82
2023-02-05T00:16:18.189Z,1.45
2023-02-05T00:18:45.898Z,1.58
2023-02-05T00:21:13.852Z,1.75
2023-02-05T00:23:41.214Z,0.95
2023-02-05T00:26:08.466Z,1.23
2023-02-05T00:28:36.177Z,1.98
2023-02-05T00:31:09.195Z,1.92
2023-02-05T00:33:36.160Z,0.73
2023-02-05T00:36:04.411Z,2.97
2023-02-05T00:38:31.731Z,0.90
2023-02-05T00:40:58.913Z,0.63
2023-02-05T00:43:26.142Z,1.38
2023-02-05T00:45:53.006Z,2.15
2023-02-05T00:48:19.916Z,1.63
2023-02-05T00:50:49.772Z,0.70
2023-02-05T00:53:17.095Z,1.00
2023-02-05T00:55:43.979Z,1.17
2023-02-05T00:58:11.738Z,1.73
2023-02-05T01:00:39.550Z,1.38
2023-02-05T01:03:06.861Z,1.90
2023-02-05T01:05:35.128Z,0.68
2023-02-05T01:08:02.257Z,0.68
2023-02-05T01:10:29.563Z,1.85
2023-02-05T01:12:56.438Z,0.63
2023-02-05T01:15:23.411Z,0.30
2023-02-05T01:17:50.198Z,0.85
2023-02-05T01:20:17.309Z,0.95
2023-02-05T01:22:44.205Z,1.42
2023-02-05T01:25:11.174Z,0.47
2023-02-05T01:27:38.125Z,0.82
2023-02-05T01:30:06.504Z,0.95
2023-02-05T01:32:33.428Z,1.00
2023-02-05T01:35:00.354Z,1.75
2023-02-05T01:37:27.301Z,1.23
2023-02-05T01:39:54.138Z,0.95
2023-02-05T01:42:26.529Z,0.40
2023-02-05T01:45:32.639Z,1.00
2023-02-05T01:48:02.544Z,2.10
2023-02-05T01:51:01.791Z,0.80
2023-02-05T01:53:33.011Z,0.80
2023-02-05T01:56:14.904Z,0.80
2023-02-05T01:59:03.521Z,1.30
2023-02-05T02:01:32.248Z,0.98
2023-02-05T02:04:01.480Z,1.45
2023-02-05T02:06:28.349Z,1.13
2023-02-05T02:08:55.521Z,1.48
2023-02-05T02:11:24.840Z,1.38
2023-02-05T02:13:54.897Z,1.98
2023-02-05T02:16:23.009Z,0.98
2023-02-05T02:18:50.291Z,0.82
2023-02-05T02:21:45.596Z,0.45
2023-02-05T02:24:44.666Z,1.10
2023-02-05T02:27:49.804Z,0.90
2023-02-05T02:30:41.002Z,1.05
2023-02-05T02:33:26.892Z,2.03
2023-02-05T02:36:38.542Z,1.05
2023-02-05T02:39:22.090Z,2.28
2023-02-05T02:41:54.004Z,2.58
2023-02-05T02:44:49.052Z,1.70
2023-02-05T02:47:22.861Z,1.48
2023-02-05T02:49:55.480Z,1.92
2023-02-05T02:52:25.459Z,1.15
2023-02-05T02:54:57.543Z,1.58
2023-02-05T02:57:28.737Z,1.30
2023-02-05T02:59:59.799Z,1.45
2023-02-05T03:02:30.724Z,1.25
2023-02-05T03:05:01.868Z,1.63
2023-02-05T03:07:39.713Z,2.25
2023-02-05T03:27:40.808Z,4.05
2023-02-05T03:30:09.603Z,4.40
2023-02-05T03:32:44.552Z,4.65
2023-02-05T03:35:40.119Z,4.57
2023-02-05T03:38:19.581Z,4.10
2023-02-05T03:41:01.237Z,5.07
2023-02-05T03:43:51.051Z,4.85
2023-02-05T03:46:42.693Z,5.05
2023-02-05T03:49:52.632Z,4.43
2023-02-05T03:52:27.362Z,4.85
2023-02-05T03:55:04.112Z,5.50
2023-02-05T03:57:48.959Z,5.65
2023-02-05T04:00:17.704Z,5.50
2023-02-05T04:02:47.238Z,5.80
2023-02-05T04:05:22.915Z,4.65
2023-02-05T04:07:52.531Z,5.40
2023-02-05T04:10:22.710Z,5.45
2023-02-05T04:12:50.744Z,5.93
2023-02-05T04:15:18.472Z,5.93
2023-02-05T04:17:49.240Z,5.28
2023-02-05T04:20:16.230Z,5.53
2023-02-05T04:22:43.117Z,6.18
2023-02-05T04:25:10.154Z,6.40
2023-02-05T04:27:37.887Z,6.65
2023-02-05T04:30:06.938Z,5.43
2023-02-05T04:32:37.341Z,5.35
2023-02-05T04:35:05.120Z,5.50
2023-02-05T04:37:32.006Z,5.85
2023-02-05T04:39:59.943Z,6.38
2023-02-05T04:42:26.869Z,5.75
2023-02-05T04:44:54.568Z,6.05
2023-02-05T04:47:21.545Z,5.90
2023-02-05T04:49:48.425Z,5.72
2023-02-05T04:52:15.307Z,6.13
2023-02-05T04:54:42.406Z,5.97
2023-02-05T04:57:09.319Z,5.13
2023-02-05T04:59:36.213Z,5.18
2023-02-05T05:02:03.273Z,5.68
2023-02-05T05:04:30.424Z,5.82
2023-02-05T05:06:57.341Z,5.38
2023-02-05T05:09:25.317Z,5.90
2023-02-05T05:11:53.070Z,5.63
2023-02-05T05:14:20.225Z,5.90
2023-02-05T05:16:49.102Z,6.47
2023-02-05T05:19:16.380Z,5.88
2023-02-05T05:21:43.239Z,6.63
2023-02-05T05:24:10.081Z,5.90
2023-02-05T05:26:38.106Z,6.20
2023-02-05T05:29:06.376Z,6.47
2023-02-05T05:31:33.305Z,6.03
2023-02-05T05:34:00.179Z,6.25
2023-02-05T05:36:27.085Z,5.25
2023-02-05T05:38:54.022Z,6.10
2023-02-05T05:41:42.442Z,6.00
2023-02-05T05:44:10.212Z,6.43
2023-02-05T05:46:37.037Z,7.45
2023-02-05T05:49:04.152Z,6.13
2023-02-05T05:51:32.688Z,5.75
2023-02-05T05:53:59.643Z,4.60
2023-02-05T05:56:26.540Z,6.35
2023-02-05T05:58:53.398Z,6.28
2023-02-05T06:01:22.237Z,6.00
2023-02-05T06:03:50.167Z,5.40
2023-02-05T06:06:17.117Z,6.25
2023-02-05T06:08:43.998Z,5.60
2023-02-05T06:11:11.182Z,5.57
2023-02-05T06:13:38.199Z,6.03
2023-02-05T06:16:05.661Z,5.38
2023-02-05T06:18:32.782Z,6.18
2023-02-05T06:20:59.943Z,5.65
2023-02-05T06:23:26.840Z,5.32
2023-02-05T06:25:53.824Z,6.75
2023-02-05T06:28:20.752Z,6.30
2023-02-05T06:30:47.731Z,6.45
2023-02-05T06:33:14.713Z,5.55
2023-02-05T06:35:42.382Z,5.97
2023-02-05T06:38:09.335Z,5.72
2023-02-05T06:40:36.195Z,5.38
2023-02-05T06:43:04.157Z,6.38
2023-02-05T06:45:30.997Z,4.90
2023-02-05T06:47:58.386Z,5.20
2023-02-05T06:50:25.687Z,4.90
2023-02-05T06:52:52.456Z,5.57
2023-02-05T06:55:19.377Z,5.40
2023-02-05T06:57:46.195Z,5.47
2023-02-05T07:00:14.064Z,6.07
2023-02-05T07:02:41.036Z,5.40
2023-02-05T07:05:08.618Z,6.40
2023-02-05T07:07:35.608Z,6.53
2023-02-05T07:10:02.510Z,5.45
2023-02-05T07:12:29.435Z,6.05
2023-02-05T07:14:56.268Z,5.47
2023-02-05T07:17:23.328Z,5.90
2023-02-05T07:19:50.251Z,6.35
2023-02-05T07:22:17.074Z,6.43
2023-02-05T07:24:43.978Z,5.30
2023-02-05T07:27:10.934Z,6.85
2023-02-05T07:29:37.792Z,5.57
2023-02-05T07:32:05.285Z,5.88
2023-02-05T07:34:32.325Z,5.07
2023-02-05T07:36:59.195Z,6.40
2023-02-05T07:39:28.159Z,7.68
2023-02-05T07:41:55.194Z,6.22
2023-02-05T07:44:30.627Z,6.03
2023-02-05T07:46:57.522Z,5.35
2023-02-05T07:49:24.445Z,5.95
2023-02-05T07:51:51.309Z,5.65
2023-02-05T07:54:18.332Z,5.78
2023-02-05T07:56:45.303Z,6.18
2023-02-05T07:59:12.361Z,6.03
2023-02-05T08:01:39.315Z,5.47
2023-02-05T08:04:06.309Z,5.82
2023-02-05T08:06:34.169Z,5.50
2023-02-05T08:09:01.084Z,6.85
2023-02-05T08:11:27.904Z,6.40
2023-02-05T08:13:54.879Z,8.50
2023-02-05T08:16:21.929Z,8.55
2023-02-05T08:18:50.696Z,6.88
2023-02-05T08:21:19.220Z,6.00
2023-02-05T08:23:46.085Z,7.30
2023-02-05T08:26:15.039Z,8.07
2023-02-05T08:28:43.731Z,7.78
2023-02-05T08:31:16.314Z,7.95
2023-02-05T08:33:43.559Z,9.35
2023-02-05T08:36:11.511Z,8.82
2023-02-05T08:38:38.427Z,9.20
2023-02-05T08:41:13.802Z,9.65
2023-02-05T08:43:45.909Z,10.05
2023-02-05T08:46:15.078Z,10.40
2023-02-05T08:48:42.074Z,10.90
2023-02-05T08:51:13.042Z,10.40
2023-02-05T08:53:40.394Z,11.38
2023-02-05T08:56:10.693Z,10.00
2023-02-05T08:58:39.202Z,10.23
2023-02-05T09:01:12.008Z,11.70
2023-02-05T09:03:39.087Z,12.23
2023-02-05T09:06:08.612Z,11.70
2023-02-05T09:08:36.342Z,13.50
2023-02-05T09:11:03.978Z,10.90
2023-02-05T09:13:31.367Z,11.43
2023-02-05T09:15:58.320Z,11.25
2023-02-05T09:18:25.297Z,11.38
2023-02-05T09:20:54.193Z,11.38
2023-02-05T09:23:21.494Z,11.68
2023-02-05T09:25:48.712Z,11.50
2023-02-05T09:28:16.164Z,10.85
2023-02-05T09:30:45.642Z,11.52
2023-02-05T09:33:13.902Z,10.63
2023-02-05T09:35:41.403Z,10.40
2023-02-05T09:38:08.429Z,9.90
2023-02-05T09:40:53.796Z,10.10
2023-02-05T09:44:02.283Z,11.15
2023-02-05T09:46:45.089Z,11.02
2023-02-05T09:49:21.689Z,10.57
2023-02-05T09:51:52.858Z,10.30
2023-02-05T09:54:33.816Z,10.30
2023-02-05T09:57:30.298Z,10.38
2023-02-05T09:59:58.738Z,10.52
2023-02-05T10:02:41.888Z,10.75
2023-02-05T10:05:21.979Z,10.55
2023-02-05T10:07:54.510Z,11.13
2023-02-05T10:10:57.716Z,10.98
2023-02-05T10:13:30.416Z,11.95
2023-02-05T10:16:06.120Z,12.10
2023-02-05T10:18:51.437Z,10.52
2023-02-05T10:21:30.132Z,11.32
2023-02-05T10:23:59.678Z,11.82
2023-02-05T10:26:36.962Z,10.80
2023-02-05T10:29:22.552Z,11.68
2023-02-05T10:31:56.569Z,11.35
2023-02-05T10:34:42.090Z,10.13
2023-02-05T10:37:19.170Z,11.10
2023-02-05T10:39:47.602Z,10.55
2023-02-05T10:42:23.381Z,11.50
2023-02-05T10:44:58.456Z,10.98
2023-02-05T10:47:39.208Z,11.13
2023-02-05T10:50:32.199Z,11.95
2023-02-05T10:52:59.115Z,11.23
2023-02-05T10:55:26.149Z,11.00
2023-02-05T10:57:53.099Z,11.60
2023-02-05T11:00:22.701Z,11.55
2023-02-05T11:02:53.125Z,11.23
2023-02-05T11:05:26.565Z,11.63
2023-02-05T11:07:54.543Z,11.52
2023-02-05T11:10:27.682Z,11.88
2023-02-05T11:13:28.215Z,11.15
2023-02-05T11:15:56.278Z,11.48
2023-02-05T11:18:26.915Z,11.90
2023-02-05T11:21:02.675Z,12.20
2023-02-05T11:23:32.281Z,11.65
2023-02-05T11:26:01.585Z,12.32
2023-02-05T11:28:37.057Z,11.98
2023-02-05T11:31:27.273Z,12.05
2023-02-05T11:34:09.560Z,11.02
2023-02-05T11:36:57.935Z,11.80
2023-02-05T11:39:27.410Z,12.10
2023-02-05T11:41:56.781Z,12.05
2023-02-05T11:44:30.185Z,14.73
2023-02-05T11:47:00.894Z,11.48
2023-02-05T11:49:38.438Z,12.48
2023-02-05T11:52:11.999Z,11.65
2023-02-05T11:54:43.706Z,11.50
2023-02-05T11:57:19.877Z,11.70
2023-02-05T11:59:57.225Z,11.07
2023-02-05T12:02:29.804Z,11.52
2023-02-05T12:05:16.881Z,10.40
2023-02-05T12:08:21.497Z,10.55
2023-02-05T12:10:57.941Z,11.80
2023-02-05T12:13:39.952Z,11.70
2023-02-05T12:16:42.840Z,11.40
2023-02-05T12:19:23.179Z,10.85
2023-02-05T12:22:19.161Z,9.48
2023-02-05T12:25:16.247Z,10.15
2023-02-05T12:28:03.327Z,11.10
2023-02-05T12:30:39.237Z,9.95
2023-02-05T12:33:21.002Z,9.40
2023-02-05T12:36:08.054Z,10.00
2023-02-05T12:39:12.803Z,10.65
2023-02-05T12:41:59.247Z,9.60
2023-02-05T12:44:48.918Z,10.52
2023-02-05T12:47:34.151Z,10.18
2023-02-05T12:50:22.330Z,10.52
2023-02-05T12:53:03.096Z,11.02
2023-02-05T12:56:04.705Z,11.27
2023-02-05T12:58:39.896Z,11.13
2023-02-05T13:01:11.299Z,10.80
2023-02-05T13:03:55.454Z,10.18
2023-02-05T13:06:37.895Z,9.70
2023-02-05T13:09:13.511Z,10.40
2023-02-05T13:11:53.761Z,10.93
2023-02-05T13:14:30.250Z,11.48
2023-02-05T13:17:17.384Z,10.90
2023-02-05T13:19:57.312Z,10.75
2023-02-05T13:22:50.652Z,10.32
2023-02-05T13:25:39.978Z,10.43
2023-02-05T13:28:42.312Z,10.60
2023-02-05T13:31:27.098Z,10.95
2023-02-05T13:36:27.290Z,10.70
2023-02-05T13:39:13.560Z,10.65
2023-02-05T13:42:20.586Z,10.60
2023-02-05T13:45:25.131Z,10.30
2023-02-05T13:48:25.805Z,10.20
2023-02-05T13:51:07.715Z,10.70
2023-02-05T13:53:49.964Z,10.60
2023-02-05T13:56:35.004Z,10.25
2023-02-05T13:59:06.145Z,10.43
2023-02-05T14:01:41.101Z,11.25
2023-02-05T14:04:28.631Z,9.90
2023-02-05T14:07:02.192Z,11.55
2023-02-05T14:09:40.831Z,10.43
2023-02-05T14:12:27.107Z,10.80
2023-02-05T14:15:20.232Z,10.50
2023-02-05T14:17:47.096Z,13.35
2023-02-05T14:20:41.675Z,13.13
2023-02-05T14:23:35.940Z,10.02
2023-02-05T14:26:11.289Z,11.57
2023-02-05T14:28:45.562Z,11.15
2023-02-05T14:31:45.906Z,12.23
2023-02-05T14:34:48.233Z,11.15
2023-02-05T14:37:29.479Z,9.65
2023-02-05T14:39:56.723Z,13.30
2023-02-05T14:42:27.492Z,12.93
2023-02-05T14:44:57.452Z,13.65
2023-02-05T14:47:28.999Z,13.70
2023-02-05T14:50:24.184Z,11.52
2023-02-05T14:53:01.124Z,11.07
2023-02-05T14:55:35.920Z,10.73
2023-02-05T14:58:19.491Z,11.00
2023-02-05T15:00:46.370Z,10.55
2023-02-05T15:03:13.679Z,11.85
2023-02-05T15:05:43.442Z,11.38
2023-02-05T15:08:29.060Z,11.63
2023-02-05T15:11:14.149Z,11.13
2023-02-05T15:13:41.760Z,10.57
2023-02-05T15:29:47.444Z,10.68
2023-02-05T15:32:46.739Z,10.60
2023-02-05T15:35:18.818Z,10.52
2023-02-05T15:37:50.266Z,11.40
2023-02-05T15:40:22.687Z,10.02
2023-02-05T15:42:55.658Z,11.15
2023-02-05T15:45:33.881Z,10.60
2023-02-05T15:48:07.379Z,9.20
2023-02-05T15:50:37.286Z,10.82
2023-02-05T15:53:10.550Z,10.90
2023-02-05T15:55:38.417Z,12.63
2023-02-05T15:58:07.061Z,10.93
2023-02-05T16:00:37.775Z,10.98
2023-02-05T16:03:04.819Z,10.00
2023-02-05T16:05:32.334Z,10.13
2023-02-05T16:08:01.980Z,10.88
2023-02-05T16:10:34.703Z,10.88
2023-02-05T16:13:14.622Z,12.43
2023-02-05T16:15:50.614Z,10.10
2023-02-05T16:18:45.199Z,11.70
2023-02-05T16:21:25.938Z,10.23
2023-02-05T16:24:02.500Z,9.30
2023-02-05T16:26:53.846Z,10.95
2023-02-05T16:29:29.633Z,10.40
2023-02-05T16:32:15.881Z,10.63
2023-02-05T16:34:44.214Z,10.13
2023-02-05T16:37:16.612Z,9.95
2023-02-05T16:39:50.016Z,10.88
2023-02-05T16:42:46.222Z,10.07
2023-02-05T16:45:13.027Z,10.48
2023-02-05T16:47:40.160Z,9.85
2023-02-05T16:50:42.898Z,9.50
2023-02-05T16:53:27.245Z,9.38
2023-02-05T16:58:28.614Z,9.77
2023-02-05T17:00:58.516Z,10.02
2023-02-05T17:03:28.946Z,10.15
2023-02-05T17:06:00.489Z,9.30
2023-02-05T17:08:33.742Z,9.60
2023-02-05T17:11:04.494Z,10.88
2023-02-05T17:13:42.935Z,9.82
2023-02-05T17:16:26.116Z,9.77
2023-02-05T17:19:01.404Z,12.25
2023-02-05T17:21:32.452Z,11.40
2023-02-05T17:24:02.836Z,10.45
2023-02-05T17:26:33.080Z,10.23
2023-02-05T17:29:04.215Z,11.35
2023-02-05T17:31:35.426Z,10.70
2023-02-05T17:34:02.611Z,9.35
2023-02-05T17:36:29.454Z,9.55
2023-02-05T17:38:56.583Z,10.00
2023-02-05T17:41:43.101Z,9.25
2023-02-05T17:44:14.438Z,9.85
2023-02-05T17:46:42.380Z,9.05
2023-02-05T17:49:09.320Z,8.38
2023-02-05T17:51:36.363Z,9.48
2023-02-05T17:54:03.303Z,9.73
2023-02-05T17:56:30.239Z,9.10
2023-02-05T17:58:58.288Z,8.82
2023-02-05T18:01:25.397Z,8.95
2023-02-05T18:03:52.399Z,10.18
2023-02-05T18:06:19.656Z,10.95
2023-02-05T18:08:46.566Z,10.43
2023-02-05T18:11:13.423Z,11.43
2023-02-05T18:13:40.499Z,9.93
2023-02-05T18:16:08.102Z,11.13
2023-02-05T18:18:36.406Z,9.77
2023-02-05T18:21:03.447Z,10.38
2023-02-05T18:23:30.443Z,11.32
2023-02-05T18:25:58.375Z,10.82
2023-02-05T18:28:25.776Z,10.77
2023-02-05T18:31:04.358Z,10.70
2023-02-05T18:33:31.464Z,10.50
2023-02-05T18:36:12.475Z,9.75
2023-02-05T18:38:41.107Z,10.32
2023-02-05T18:41:13.580Z,10.20
2023-02-05T18:43:41.024Z,11.93
2023-02-05T18:46:10.436Z,12.93
2023-02-05T18:48:38.374Z,10.27
2023-02-05T18:51:06.578Z,10.55
2023-02-05T18:53:34.403Z,10.60
2023-02-05T18:56:07.239Z,10.93
2023-02-05T18:58:34.706Z,10.70
2023-02-05T19:01:10.240Z,11.30
2023-02-05T19:03:38.049Z,11.85
2023-02-05T19:06:05.920Z,9.55
2023-02-05T19:08:32.826Z,9.98
2023-02-05T19:11:00.114Z,10.55
2023-02-05T19:13:26.918Z,12.25
2023-02-05T19:15:55.143Z,11.45
2023-02-05T19:18:22.036Z,10.90
2023-02-05T19:20:49.565Z,10.05
2023-02-05T19:23:16.776Z,11.50
2023-02-05T19:25:43.646Z,10.23
2023-02-05T19:28:10.550Z,10.38
2023-02-05T19:30:37.985Z,10.68
2023-02-05T19:33:05.406Z,9.82
2023-02-05T19:35:32.308Z,11.30
2023-02-05T19:37:59.314Z,10.02
2023-02-05T19:40:26.222Z,10.77
2023-02-05T19:42:54.010Z,10.50
2023-02-05T19:45:22.017Z,10.27
2023-02-05T19:47:48.891Z,11.13
2023-02-05T19:50:16.055Z,10.05
2023-02-05T19:52:44.025Z,10.75
2023-02-05T19:55:10.835Z,10.30
2023-02-05T19:57:37.707Z,8.82
2023-02-05T20:00:04.973Z,8.88
2023-02-05T20:02:38.971Z,9.93
2023-02-05T20:05:06.298Z,9.73
2023-02-05T20:07:34.021Z,10.23
2023-02-05T20:10:00.904Z,9.13
2023-02-05T20:12:27.751Z,9.00
2023-02-05T20:14:54.595Z,9.90
2023-02-05T20:17:21.418Z,10.70
2023-02-05T20:19:48.309Z,12.68
2023-02-05T20:22:15.284Z,9.68
2023-02-05T20:24:42.130Z,9.70
2023-02-05T20:27:08.933Z,9.82
2023-02-05T20:29:54.362Z,8.07
2023-02-05T20:32:21.183Z,8.88
2023-02-05T20:34:50.243Z,8.68
2023-02-05T20:37:19.873Z,8.55
2023-02-05T20:39:48.263Z,9.85
2023-02-05T20:42:16.268Z,7.38
2023-02-05T20:44:43.903Z,7.55
2023-02-05T20:47:13.491Z,7.70
2023-02-05T20:49:41.813Z,8.32
2023-02-05T20:52:10.126Z,7.20
2023-02-05T20:54:37.408Z,6.70
2023-02-05T20:57:04.420Z,7.65
2023-02-05T20:59:33.155Z,7.90
2023-02-05T21:02:00.808Z,7.75
2023-02-05T21:04:27.753Z,6.82
2023-02-05T21:06:54.752Z,7.00
2023-02-05T21:09:22.167Z,6.95
2023-02-05T21:11:50.163Z,7.07
2023-02-05T21:14:17.260Z,6.88
2023-02-05T21:16:44.370Z,7.53
2023-02-05T21:19:12.383Z,7.82
2023-02-05T21:21:40.429Z,7.38
2023-02-05T21:24:11.358Z,7.47
2023-02-05T21:26:43.451Z,6.70
2023-02-05T21:29:13.695Z,7.57
2023-02-05T21:31:53.185Z,7.57
2023-02-05T21:34:23.060Z,6.60
2023-02-05T21:36:50.681Z,6.82
2023-02-05T21:39:20.439Z,8.02
2023-02-05T21:41:48.622Z,6.93
2023-02-05T21:44:15.580Z,7.95
2023-02-05T21:46:42.735Z,7.65
2023-02-05T21:49:11.448Z,7.45
2023-02-05T21:51:38.424Z,7.28
2023-02-05T21:54:06.398Z,7.35
2023-02-05T21:56:36.815Z,6.97
2023-02-05T21:59:04.032Z,7.05
2023-02-05T22:01:33.555Z,8.15
2023-02-05T22:04:13.410Z,7.85
2023-02-05T22:06:40.866Z,8.10
2023-02-05T22:09:09.460Z,7.00
2023-02-05T22:11:39.317Z,8.07
2023-02-05T22:14:06.671Z,8.27
2023-02-05T22:16:35.010Z,7.38
2023-02-05T22:19:02.754Z,7.65
2023-02-05T22:21:38.860Z,7.35
2023-02-05T22:24:07.805Z,7.43
2023-02-05T22:26:37.319Z,7.60
2023-02-05T22:29:06.490Z,8.93
2023-02-05T22:31:33.873Z,6.85
2023-02-05T22:34:00.858Z,8.38
2023-02-05T22:36:30.667Z,8.13
2023-02-05T22:38:58.194Z,8.70
2023-02-05T22:41:33.862Z,8.07
2023-02-05T22:44:02.216Z,7.78
2023-02-05T22:46:31.638Z,9.02
2023-02-05T22:49:00.459Z,8.48
2023-02-05T22:51:36.656Z,7.80
2023-02-05T22:54:04.446Z,8.27
2023-02-05T22:56:31.486Z,7.70
2023-02-05T22:59:01.358Z,7.68
2023-02-05T23:01:31.907Z,8.95
2023-02-05T23:04:00.838Z,8.23
2023-02-05T23:06:30.523Z,8.55
2023-02-05T23:09:03.866Z,7.63
2023-02-05T23:11:32.348Z,7.63
2023-02-05T23:14:00.569Z,9.20
2023-02-05T23:16:30.260Z,8.40
2023-02-05T23:19:00.344Z,7.95
2023-02-05T23:21:29.736Z,8.05
2023-02-05T23:23:57.154Z,9.00
2023-02-05T23:26:26.729Z,7.90
2023-02-05T23:28:55.289Z,7.88
2023-02-05T23:31:23.740Z,8.18
2023-02-05T23:33:51.848Z,7.68
2023-02-05T23:36:19.851Z,7.55
2023-02-05T23:38:47.845Z,7.78
2023-02-05T23:41:14.692Z,8.48
2023-02-05T23:43:41.657Z,8.32
2023-02-05T23:46:08.689Z,8.52
2023-02-05T23:48:35.939Z,8.73
2023-02-05T23:51:02.807Z,8.07
2023-02-05T23:53:29.757Z,8.02
2023-02-05T23:55:56.656Z,9.85
2023-02-05T23:58:25.989Z,9.27
